createdAt,value
2022-09-10T15:18:41.433Z,19.80
2022-09-10T15:21:12.385Z,19.35
2022-09-10T15:23:39.563Z,19.71
2022-09-10T15:26:07.704Z,19.42
2022-09-10T15:28:35.163Z,19.83
2022-09-10T15:31:02.198Z,19.95
2022-09-10T15:33:29.717Z,19.69
2022-09-10T15:35:57.349Z,19.99
2022-09-10T15:38:25.098Z,19.80
2022-09-10T15:41:04.387Z,20.01
2022-09-10T15:43:37.957Z,20.08
2022-09-10T15:46:05.207Z,20.04
2022-09-10T15:48:33.916Z,19.90
2022-09-10T15:51:11.672Z,20.29
2022-09-10T15:53:40.050Z,20.23
2022-09-10T15:56:09.757Z,20.43
2022-09-10T15:58:37.337Z,20.91
2022-09-10T16:01:12.888Z,21.33
2022-09-10T16:03:48.351Z,21.33
2022-09-10T16:06:18.732Z,21.34
2022-09-10T16:08:57.047Z,21.30
2022-09-10T16:11:25.873Z,21.32
2022-09-10T16:13:52.976Z,21.70
2022-09-10T16:16:24.435Z,21.45
2022-09-10T16:18:56.335Z,21.29
2022-09-10T16:21:26.564Z,20.75
2022-09-10T16:23:58.075Z,20.64
2022-09-10T16:26:30.404Z,20.90
2022-09-10T16:29:03.172Z,20.63
2022-09-10T16:31:32.892Z,20.82
2022-09-10T16:34:07.359Z,20.61
2022-09-10T16:36:37.254Z,20.56
2022-09-10T16:39:12.271Z,20.17
2022-09-10T16:41:44.366Z,20.51
2022-09-10T16:44:13.275Z,20.06
2022-09-10T16:46:41.227Z,20.50
2022-09-10T16:49:13.194Z,20.47
2022-09-10T16:51:42.701Z,20.09
2022-09-10T16:54:10.962Z,20.32
2022-09-10T16:56:44.163Z,19.76
2022-09-10T16:59:22.873Z,19.87
2022-09-10T17:01:52.184Z,19.75
2022-09-10T17:04:27.577Z,19.66
2022-09-10T17:06:58.027Z,19.33
2022-09-10T17:09:25.942Z,19.63
2022-09-10T17:11:53.678Z,19.57
2022-09-10T17:14:21.152Z,19.29
2022-09-10T17:16:49.042Z,19.46
2022-09-10T17:19:20.634Z,19.39
2022-09-10T17:21:52.950Z,19.03
2022-09-10T17:24:22.951Z,19.19
2022-09-10T17:26:51.422Z,19.22
2022-09-10T17:29:21.184Z,18.62
2022-09-10T17:31:52.722Z,18.82
2022-09-10T17:34:21.786Z,18.69
2022-09-10T17:36:49.301Z,18.88
2022-09-10T17:39:17.132Z,18.92
2022-09-10T17:41:45.022Z,18.61
2022-09-10T17:44:13.756Z,18.41
2022-09-10T17:46:43.078Z,18.27
2022-09-10T17:49:14.363Z,18.30
2022-09-10T17:51:42.990Z,18.48
2022-09-10T17:54:10.961Z,18.45
2022-09-10T17:56:42.020Z,18.46
2022-09-10T17:59:14.782Z,18.78
2022-09-10T18:01:43.172Z,18.77
2022-09-10T18:04:14.794Z,18.67
2022-09-10T18:06:42.732Z,18.53
2022-09-10T18:09:11.731Z,18.31
2022-09-10T18:11:40.567Z,18.34
2022-09-10T18:14:08.525Z,18.62
2022-09-10T18:16:37.136Z,17.98
2022-09-10T18:19:12.899Z,18.14
2022-09-10T18:21:42.558Z,18.37
2022-09-10T18:24:14.951Z,18.29
2022-09-10T18:26:44.812Z,17.93
2022-09-10T18:29:15.700Z,17.61
2022-09-10T18:31:53.457Z,18.00
2022-09-10T18:34:24.490Z,18.09
2022-09-10T18:36:56.592Z,18.03
2022-09-10T18:39:25.651Z,18.00
2022-09-10T18:41:53.463Z,17.94
2022-09-10T18:44:26.959Z,17.92
2022-09-10T18:46:57.002Z,17.87
2022-09-10T18:49:25.567Z,17.23
2022-09-10T18:51:54.863Z,17.18
2022-09-10T18:54:22.877Z,17.53
2022-09-10T18:56:50.655Z,17.56
2022-09-10T18:59:21.025Z,17.13
2022-09-10T19:01:50.098Z,17.20
2022-09-10T19:04:22.096Z,17.53
2022-09-10T19:06:52.719Z,17.48
2022-09-10T19:09:23.915Z,17.31
2022-09-10T19:11:53.729Z,17.17
2022-09-10T19:14:30.378Z,17.02
2022-09-10T19:16:59.639Z,17.31
2022-09-10T19:19:32.800Z,16.98
2022-09-10T19:22:07.461Z,17.02
2022-09-10T19:24:53.872Z,16.91
2022-09-10T19:27:22.038Z,17.14
2022-09-10T19:29:50.294Z,17.08
2022-09-10T19:32:20.058Z,17.05
2022-09-10T19:34:50.529Z,16.69
2022-09-10T19:37:17.750Z,16.57
2022-09-10T19:39:46.629Z,16.55
2022-09-10T19:42:15.117Z,16.78
2022-09-10T19:44:42.427Z,16.72
2022-09-10T19:47:09.783Z,16.60
2022-09-10T19:49:37.037Z,16.59
2022-09-10T19:52:04.703Z,16.62
2022-09-10T19:54:32.152Z,16.26
2022-09-10T19:56:59.166Z,16.34
2022-09-10T19:59:26.296Z,16.36
2022-09-10T20:01:53.843Z,16.19
2022-09-10T20:04:21.312Z,16.40
2022-09-10T20:06:50.660Z,16.13
2022-09-10T20:09:18.263Z,16.28
2022-09-10T20:11:48.468Z,16.33
2022-09-10T20:14:16.569Z,15.78
2022-09-10T20:16:47.279Z,16.06
2022-09-10T20:19:22.433Z,16.06
2022-09-10T20:21:52.148Z,16.10
2022-09-10T20:24:20.259Z,16.01
2022-09-10T20:26:49.266Z,16.32
2022-09-10T20:29:21.790Z,15.91
2022-09-10T20:31:49.598Z,15.97
2022-09-10T20:34:20.609Z,15.91
2022-09-10T20:36:51.506Z,16.16
2022-09-10T20:39:23.974Z,16.03
2022-09-10T20:41:59.474Z,16.15
2022-09-10T20:44:27.055Z,16.13
2022-09-10T20:46:54.697Z,16.19
2022-09-10T20:49:21.861Z,16.16
2022-09-10T20:51:49.525Z,16.10
2022-09-10T20:54:18.875Z,16.13
2022-09-10T20:56:46.799Z,15.87
2022-09-10T20:59:16.020Z,16.24
2022-09-10T21:01:46.708Z,16.24
2022-09-10T21:04:19.869Z,16.24
2022-09-10T21:06:51.831Z,16.21
2022-09-10T21:09:19.402Z,16.07
2022-09-10T21:11:46.907Z,16.05
2022-09-10T21:14:14.456Z,15.70
2022-09-10T21:16:43.714Z,15.92
2022-09-10T21:19:16.740Z,15.95
2022-09-10T21:21:46.255Z,15.92
2022-09-10T21:24:16.953Z,15.97
2022-09-10T21:26:45.110Z,15.76
2022-09-10T21:29:19.214Z,15.76
2022-09-10T21:31:54.904Z,15.95
2022-09-10T21:34:22.744Z,15.75
2022-09-10T21:36:49.939Z,15.96
2022-09-10T21:39:18.769Z,15.51
2022-09-10T21:41:48.321Z,16.03
2022-09-10T21:44:18.317Z,15.69
2022-09-10T21:46:46.721Z,16.01
2022-09-10T21:49:14.853Z,15.87
2022-09-10T21:51:43.172Z,15.70
2022-09-10T21:54:21.114Z,15.87
2022-09-10T21:56:52.319Z,15.96
2022-09-10T21:59:23.216Z,15.94
2022-09-10T22:01:50.843Z,15.95
2022-09-10T22:04:22.424Z,15.87
2022-09-10T22:06:50.440Z,15.70
2022-09-10T22:09:18.372Z,15.99
2022-09-10T22:11:50.701Z,15.76
2022-09-10T22:14:23.056Z,15.85
2022-09-10T22:16:51.530Z,16.01
2022-09-10T22:19:28.748Z,16.01
2022-09-10T22:21:57.883Z,15.83
2022-09-10T22:24:26.506Z,15.70
2022-09-10T22:26:53.849Z,15.93
2022-09-10T22:29:21.111Z,15.60
2022-09-10T22:31:48.570Z,15.56
2022-09-10T22:34:17.350Z,15.65
2022-09-10T22:36:46.649Z,15.52
2022-09-10T22:39:21.881Z,15.30
2022-09-10T22:41:50.479Z,15.31
2022-09-10T22:44:18.350Z,15.65
2022-09-10T22:46:45.326Z,15.61
2022-09-10T22:49:12.581Z,15.66
2022-09-10T22:51:43.689Z,15.64
2022-09-10T22:54:11.243Z,15.52
2022-09-10T22:56:40.079Z,15.53
2022-09-10T22:59:07.999Z,15.42
2022-09-10T23:01:37.997Z,14.65
2022-09-10T23:04:07.613Z,14.63
2022-09-10T23:06:37.640Z,14.97
2022-09-10T23:09:08.214Z,14.83
2022-09-10T23:11:37.212Z,14.44
2022-09-10T23:14:11.636Z,14.21
2022-09-10T23:16:41.399Z,14.29
2022-09-10T23:19:13.150Z,14.37
2022-09-10T23:21:46.043Z,14.27
2022-09-10T23:24:17.541Z,14.08
2022-09-10T23:26:46.123Z,13.74
2022-09-10T23:29:13.364Z,13.83
2022-09-10T23:31:41.289Z,13.67
2022-09-10T23:34:12.286Z,13.53
2022-09-10T23:36:42.544Z,13.92
2022-09-10T23:39:14.406Z,13.64
2022-09-10T23:41:41.964Z,13.73
2022-09-10T23:44:10.192Z,13.68
2022-09-10T23:46:37.872Z,14.19
2022-09-10T23:49:05.654Z,14.05
2022-09-10T23:51:34.305Z,14.17
2022-09-10T23:54:01.568Z,13.91
2022-09-10T23:56:30.182Z,13.97
2022-09-10T23:59:00.976Z,14.40
